Wednesday, November 26, 2014
17:27 UTC
  |  Log In   |  Register Free
Airport Search:

Visalia Municipal Airport
(KVIS)

Visalia Municipal Airport Diagram
No Airport Diagram Available

FAA data valid effective November 13, 2014 - January 08, 2015 (unless otherwise noted).

 
 
 
 
 
 
 
 
 
 
 
 
 
 

Current Aviation Weather for Visalia Municipal Airport (KVIS)

The most recent METAR observation for KVIS was updated at: 1725
METAR Summary (Translated METAR)
KVIS
261715Z 14004KT 3SM CLR 11/06 A3035 RMK AO1
KHJO
261704Z AUTO 20004KT 1 1/4SM BR FEW002 SCT005 07/07 A3036 RMK AO2 T00720067
(11.4 nm SW from KVIS)
KPTV
261655Z AUTO 17004KT 5SM CLR 11/06 A3036 RMK AO1
(23.6 nm SE from KVIS)
TAF Summary (Translated TAF)
KVIS
261238Z 2613/2712 00000KT 2SM BR SKC TEMPO 2613/2615 1/4SM FG VV002 FM261600 00000KT 4SM HZ SKC FM270700 VRB03KT 2SM BR SKC
  Airport Weather Conditions for KVIS

 Current Weather at VIS
48° F
Fair
Southeast winds at 4.6 mph
VIS NOAA Radar

Pressure: 30.35 in
Humidity: 82%
Wind: Southeast at 4.6 MPH (4 KT)
Dew Point: 42.8°F
Visibility: 3.00 mi


Airport Weather Forecast for KVIS

Translated METAR and TAF for KVIS
Translated METAR for KVIS (1722 UTC 26 November 2014)
found at http://aviationweather.gov/adds/metars/
 
METAR text: KVIS 261715Z 14004KT 3SM CLR 11/06 A3035 RMK AO1
Conditions at: KVIS (VISALIA MUNI , CA, US) observed 1715 UTC 26 November 2014
Temperature: 11.0°C (52°F)
Dewpoint: 6.0°C (43°F) [RH = 71%]
Pressure (altimeter): 30.35 inches Hg (1027.9 mb)
Winds: from the SE (140 degrees) at 5 MPH (4 knots; 2.1 m/s)
Visibility: 3 miles (5 km)
Ceiling: at least 12,000 feet AGL
Clouds: sky clear below 12,000 feet AGL
Weather: no significant weather observed at this time
Translated TAF for KVIS
Forecast for: KVIS (VISALIA MUNI , CA, US)
TAF Text: KVIS 261238Z 2613/2712 00000KT 2SM BR SKC
Forecast period: 1300 to 1600 UTC 26 November 2014
Forecast type: FROM: standard forecast or significant change
Winds: calm
Visibility: 2.00 miles (3.22 km)
Clouds: clear skies
Weather: BR  (mist)
TAF Text: TEMPO 2613/2615 1/4SM FG VV002
Forecast period: 1300 to 1500 UTC 26 November 2014
Forecast type: TEMPORARY: The following changes expected for less than half the time period
Visibility: 0.25 miles (0.40 km)
Ceiling: indefinite ceiling with vertical visibility of 200 feet AGL
Clouds: obscured sky
Weather: FG  (fog)
TAF Text: FM261600 00000KT 4SM HZ SKC
Forecast period: 1600 UTC 26 November 2014 to 0700 UTC 27 November 2014
Forecast type: FROM: standard forecast or significant change
Winds: calm
Visibility: 4 miles (6 km)
Clouds: clear skies
Weather: HZ  (haze)
TAF Text: FM270700 VRB03KT 2SM BR SKC
Forecast period: 0700 to 1200 UTC 27 November 2014
Forecast type: FROM: standard forecast or significant change
Winds: variable direction winds at 3 MPH (3 knots; 1.6 m/s)
Visibility: 2.00 miles (3.22 km)
Clouds: clear skies
Weather: BR  (mist)

Find All Airport Services Find A Hotel Find A Rental Car Find A Golf Course Find A Restaurant $100 Hamburger



FBO's on the Field
FBO Company Facility Photos Services Transportation Aviation Fuel Prices: Prices include tax
Catering Weather Repair Courtesy Rental Type 100LL JetA JetA+ MOGAS 8087
 
Add another FBO Facility Photos Catering Weather Repair Courtesy Rental Type 100LL JetA JetA+ MOGAS 8087
Services Transportation Aviation Fuel Prices: Prices include tax
There are no FBO's currently reporting fuel at VIS. List your FBO now


model-print
model-print
model-print
model-print